Time;durP1;ratioP1;P1;durP2;ratioP2;P2;SDS_P1;SDS_P2;PMS_P1;PMS_P2;Temp;Humidity;BMP_temperature;BMP_pressure;BME280_temperature;BME280_humidity;BME280_pressure;Samples;Min_cycle;Max_cycle;Signal;HPM_P1;HPM_P2
2022/03/14 00:00:48;;;;;;;8.60;4.70;;;15.30;59.40;;;;;;2045175;28;20166;-75
2022/03/14 00:01:46;;;;;;;6.75;4.10;;;15.30;59.40;;;;;;2045206;28;20184;-76
2022/03/14 00:02:46;;;;;;;8.70;4.50;;;15.30;59.40;;;;;;2053215;27;20161;-76
2022/03/14 00:03:53;;;;;;;7.15;4.15;;;15.30;59.40;;;;;;2054206;27;20230;-76
2022/03/14 00:04:51;;;;;;;7.00;4.18;;;15.30;59.30;;;;;;2054101;27;20172;-77
2022/03/14 00:05:50;;;;;;;7.03;3.73;;;15.30;59.70;;;;;;2054250;27;20165;-75
2022/03/14 00:06:49;;;;;;;6.50;4.60;;;15.30;59.40;;;;;;2054022;27;20621;-76
2022/03/14 00:07:48;;;;;;;5.47;3.92;;;15.30;59.20;;;;;;2054201;27;20601;-76
2022/03/14 00:08:47;;;;;;;8.10;4.70;;;15.30;59.30;;;;;;2053991;27;20177;-76
2022/03/14 00:09:46;;;;;;;12.18;5.22;;;15.30;59.30;;;;;;2054085;27;20400;-76
2022/03/14 00:10:51;;;;;;;9.00;4.40;;;15.30;59.40;;;;;;2054082;27;20169;-76
2022/03/14 00:11:49;;;;;;;6.55;3.90;;;15.30;59.30;;;;;;2054062;27;20796;-77
2022/03/14 00:12:56;;;;;;;6.20;4.20;;;15.30;59.20;;;;;;2054032;27;20164;-76
2022/03/14 00:13:57;;;;;;;6.57;4.07;;;15.30;59.30;;;;;;2054052;27;20161;-76
2022/03/14 00:14:58;;;;;;;6.93;3.95;;;15.30;59.30;;;;;;2053962;27;20165;-76
2022/03/14 00:15:59;;;;;;;7.50;4.07;;;15.30;59.40;;;;;;2045020;28;20540;-75
2022/03/14 00:16:58;;;;;;;6.55;4.30;;;15.30;59.40;;;;;;2045146;28;20199;-76
2022/03/14 00:17:57;;;;;;;6.93;3.77;;;15.30;59.20;;;;;;2053555;27;20207;-76
2022/03/14 00:18:58;;;;;;;6.05;4.35;;;15.30;59.20;;;;;;2054099;27;20383;-77
2022/03/14 00:19:58;;;;;;;6.75;4.80;;;15.30;59.40;;;;;;2045105;28;20190;-77
2022/03/14 00:20:57;;;;;;;9.00;4.20;;;15.30;59.30;;;;;;2045070;28;20170;-77
2022/03/14 00:21:55;;;;;;;7.50;4.50;;;15.30;59.20;;;;;;2053102;27;20200;-76
2022/03/14 00:22:54;;;;;;;5.67;3.17;;;15.30;59.20;;;;;;2045207;28;20204;-77
2022/03/14 00:23:54;;;;;;;9.50;3.37;;;15.30;59.10;;;;;;2045201;28;20166;-78
2022/03/14 00:24:54;;;;;;;6.90;4.00;;;15.20;59.10;;;;;;2053541;27;20276;-76
2022/03/14 00:25:53;;;;;;;7.07;3.53;;;15.20;59.30;;;;;;2054082;27;20625;-76
2022/03/14 00:26:54;;;;;;;5.90;3.97;;;15.30;59.10;;;;;;2054005;27;20177;-76
2022/03/14 00:27:54;;;;;;;5.97;4.15;;;15.30;59.30;;;;;;2054077;27;20238;-76
2022/03/14 00:28:53;;;;;;;12.43;4.05;;;15.30;59.30;;;;;;2053940;27;20164;-76
2022/03/14 00:29:52;;;;;;;8.75;3.97;;;15.20;59.10;;;;;;2053928;27;20176;-76
2022/03/14 00:30:52;;;;;;;6.45;3.58;;;15.20;59.00;;;;;;2053905;27;20205;-76
2022/03/14 00:31:51;;;;;;;4.63;3.15;;;15.30;59.20;;;;;;2045032;28;20194;-77
2022/03/14 00:32:49;;;;;;;6.37;3.70;;;15.20;59.10;;;;;;2045149;28;20177;-77
2022/03/14 00:33:48;;;;;;;6.47;3.37;;;15.20;59.00;;;;;;2053353;27;20169;-76
2022/03/14 00:34:47;;;;;;;6.40;3.33;;;15.20;59.00;;;;;;2053933;27;20203;-77
2022/03/14 00:35:45;;;;;;;5.13;2.90;;;15.20;59.10;;;;;;2054157;27;20180;-76
2022/03/14 00:36:44;;;;;;;6.63;3.80;;;15.20;59.10;;;;;;2053963;27;20201;-76
2022/03/14 00:37:43;;;;;;;7.87;3.60;;;15.20;59.10;;;;;;2045029;28;20162;-76
2022/03/14 00:38:41;;;;;;;7.70;3.30;;;15.20;59.10;;;;;;2045200;28;20188;-77
2022/03/14 00:39:40;;;;;;;3.23;2.90;;;15.20;59.00;;;;;;2053266;27;20169;-76
2022/03/14 00:40:38;;;;;;;7.80;4.07;;;15.20;59.00;;;;;;2053978;27;20165;-77
2022/03/14 00:41:37;;;;;;;7.97;3.97;;;15.20;59.00;;;;;;2053877;27;20514;-76
2022/03/14 00:42:36;;;;;;;11.33;3.70;;;15.20;59.00;;;;;;2053869;27;20210;-78
2022/03/14 00:43:35;;;;;;;6.77;4.00;;;15.20;59.00;;;;;;2053995;27;20527;-76
2022/03/14 00:44:34;;;;;;;5.47;3.30;;;15.20;59.00;;;;;;2053713;27;20453;-77
2022/03/14 00:45:33;;;;;;;5.00;3.30;;;15.20;59.00;;;;;;2053811;27;20185;-77
2022/03/14 00:46:32;;;;;;;6.70;4.07;;;15.20;59.10;;;;;;2044904;28;20174;-77
2022/03/14 00:47:31;;;;;;;7.38;3.92;;;15.20;59.00;;;;;;2045081;28;20400;-76
2022/03/14 00:48:32;;;;;;;5.30;3.43;;;15.20;59.10;;;;;;2053379;27;20604;-78
2022/03/14 00:49:31;;;;;;;6.10;3.70;;;15.20;58.80;;;;;;2053709;27;20173;-76
2022/03/14 00:50:29;;;;;;;4.90;2.83;;;15.20;58.80;;;;;;2053735;27;20205;-78
2022/03/14 00:51:28;;;;;;;6.43;3.20;;;15.20;58.80;;;;;;2053682;27;20165;-77
2022/03/14 00:52:26;;;;;;;5.70;3.23;;;15.20;58.90;;;;;;2045008;28;20673;-77
2022/03/14 00:53:25;;;;;;;5.80;3.67;;;15.10;58.80;;;;;;2045111;28;20173;-76
2022/03/14 00:54:23;;;;;;;5.77;3.60;;;15.10;58.80;;;;;;2053432;27;20173;-77
2022/03/14 00:55:22;;;;;;;10.70;4.30;;;15.20;58.70;;;;;;2053933;27;20200;-76
2022/03/14 00:56:21;;;;;;;6.50;3.50;;;15.20;58.80;;;;;;2053786;27;20173;-76
2022/03/14 00:57:20;;;;;;;5.90;3.17;;;15.20;58.90;;;;;;2044876;28;20173;-76
2022/03/14 00:58:18;;;;;;;6.35;3.38;;;15.20;58.90;;;;;;2045028;28;20176;-78
2022/03/14 00:59:19;;;;;;;8.60;4.33;;;15.20;58.80;;;;;;2053271;27;20505;-77
2022/03/14 01:00:18;;;;;;;6.57;3.78;;;15.20;58.80;;;;;;2044821;28;20174;-78
2022/03/14 01:01:17;;;;;;;3.60;2.87;;;15.10;58.70;;;;;;2044928;28;20253;-77
2022/03/14 01:02:16;;;;;;;9.63;3.80;;;15.20;58.70;;;;;;2052632;27;20232;-77
2022/03/14 01:03:15;;;;;;;7.10;3.97;;;15.20;58.70;;;;;;2053819;27;20180;-76
2022/03/14 01:04:14;;;;;;;5.72;4.10;;;15.20;58.90;;;;;;2053575;27;20197;-77
2022/03/14 01:05:12;;;;;;;7.00;3.80;;;15.20;58.80;;;;;;2053775;27;20224;-77
2022/03/14 01:06:11;;;;;;;5.50;4.53;;;15.20;58.80;;;;;;2053810;27;20628;-76
2022/03/14 01:07:09;;;;;;;6.17;3.47;;;15.20;58.80;;;;;;2053834;27;20161;-76
2022/03/14 01:08:08;;;;;;;5.33;3.93;;;15.20;58.70;;;;;;2054040;27;20214;-76
2022/03/14 01:09:07;;;;;;;9.03;3.50;;;15.20;58.80;;;;;;2053698;27;20218;-77
2022/03/14 01:10:06;;;;;;;9.63;3.40;;;15.20;58.60;;;;;;2053690;27;20173;-77
2022/03/14 01:11:05;;;;;;;5.03;3.78;;;15.10;58.70;;;;;;2053953;27;20510;-76
2022/03/14 01:12:04;;;;;;;6.00;3.70;;;15.20;58.80;;;;;;2053819;27;20214;-77
2022/03/14 01:13:03;;;;;;;5.50;3.87;;;15.20;58.70;;;;;;2053988;27;20176;-78
2022/03/14 01:14:01;;;;;;;5.50;4.03;;;15.20;58.60;;;;;;2054378;27;20493;-77
2022/03/14 01:15:00;;;;;;;7.07;3.60;;;15.10;58.60;;;;;;2053976;27;20408;-77
2022/03/14 01:15:59;;;;;;;6.50;4.13;;;15.10;58.80;;;;;;2054359;27;20184;-78
2022/03/14 01:16:57;;;;;;;5.80;3.47;;;15.20;59.00;;;;;;2054654;27;20359;-77
2022/03/14 01:17:56;;;;;;;7.70;4.00;;;15.20;58.90;;;;;;2047111;28;20267;-76
2022/03/14 01:18:55;;;;;;;5.30;3.40;;;15.20;58.80;;;;;;2047767;28;20166;-77
2022/03/14 01:19:54;;;;;;;13.98;3.80;;;15.10;58.70;;;;;;2055436;27;20208;-76
2022/03/14 01:20:52;;;;;;;4.93;3.50;;;15.20;58.80;;;;;;2058538;27;20169;-77
2022/03/14 01:21:51;;;;;;;6.10;3.43;;;15.30;58.70;;;;;;2062954;27;20177;-77
2022/03/14 01:22:49;;;;;;;5.60;3.77;;;15.10;58.70;;;;;;2062647;27;20181;-77
2022/03/14 01:23:48;;;;;;;6.67;3.77;;;15.10;58.80;;;;;;2053772;28;20205;-77
2022/03/14 01:24:46;;;;;;;6.97;3.97;;;15.10;58.80;;;;;;2052491;28;20205;-77
2022/03/14 01:25:45;;;;;;;7.30;4.60;;;15.20;58.90;;;;;;2056517;27;20165;-77
2022/03/14 01:26:44;;;;;;;5.68;4.18;;;15.20;58.80;;;;;;2057716;27;20196;-77
2022/03/14 01:27:43;;;;;;;6.70;3.58;;;15.20;58.80;;;;;;2057574;27;20179;-76
2022/03/14 01:28:41;;;;;;;5.57;3.47;;;15.20;58.80;;;;;;2056186;27;20521;-78
2022/03/14 01:29:40;;;;;;;4.53;3.50;;;15.20;58.70;;;;;;2053545;27;20666;-77
2022/03/14 01:30:40;;;;;;;5.43;3.40;;;15.20;58.70;;;;;;2053651;27;20165;-77
2022/03/14 01:31:38;;;;;;;4.22;3.00;;;15.20;58.50;;;;;;2044515;28;20170;-77
2022/03/14 01:32:37;;;;;;;4.90;3.30;;;15.20;58.40;;;;;;2044650;28;20166;-78
2022/03/14 01:33:35;;;;;;;6.33;2.87;;;15.10;58.40;;;;;;2053045;27;20200;-78
2022/03/14 01:34:34;;;;;;;6.97;3.40;;;15.10;58.40;;;;;;2053622;27;20165;-77
2022/03/14 01:35:34;;;;;;;4.65;2.92;;;15.20;58.50;;;;;;2053457;27;20178;-77
2022/03/14 01:36:32;;;;;;;3.13;2.50;;;15.10;58.40;;;;;;2053529;27;20579;-77
2022/03/14 01:37:31;;;;;;;6.77;3.10;;;15.10;58.50;;;;;;2053463;27;20177;-78
2022/03/14 01:38:30;;;;;;;6.40;3.67;;;15.10;58.50;;;;;;2053514;27;20249;-77
2022/03/14 01:39:28;;;;;;;6.40;4.27;;;15.10;58.40;;;;;;2044547;28;20461;-77
2022/03/14 01:40:28;;;;;;;3.83;3.27;;;15.10;58.60;;;;;;2044832;28;20188;-77
2022/03/14 01:41:27;;;;;;;4.22;3.20;;;15.10;58.50;;;;;;2053211;27;20169;-78
2022/03/14 01:42:26;;;;;;;10.65;4.03;;;15.10;58.60;;;;;;2053359;27;20169;-77
2022/03/14 01:43:25;;;;;;;6.80;4.03;;;15.10;58.60;;;;;;2053594;27;20245;-77
2022/03/14 01:44:25;;;;;;;5.78;3.85;;;15.10;58.50;;;;;;2053214;27;20195;-77
2022/03/14 01:45:24;;;;;;;6.07;3.85;;;15.20;58.70;;;;;;2053513;27;20169;-78
2022/03/14 01:46:23;;;;;;;7.10;4.03;;;15.20;58.50;;;;;;2053306;27;20164;-78
2022/03/14 01:47:21;;;;;;;7.03;3.73;;;15.20;58.50;;;;;;2053458;27;20251;-78
2022/03/14 01:48:20;;;;;;;6.80;3.40;;;15.20;58.50;;;;;;2053414;27;20173;-76
2022/03/14 01:49:19;;;;;;;7.77;3.90;;;15.10;58.50;;;;;;2053262;27;20263;-77
2022/03/14 01:50:18;;;;;;;5.13;3.40;;;15.20;58.50;;;;;;2053365;27;20184;-78
2022/03/14 01:51:20;;;;;;;5.47;3.33;;;15.20;58.40;;;;;;2053209;27;20173;-77
2022/03/14 01:52:20;;;;;;;5.68;3.05;;;15.20;58.70;;;;;;2044232;28;20238;-79
2022/03/14 01:53:20;;;;;;;5.20;3.30;;;15.10;58.20;;;;;;2044557;28;20181;-77
2022/03/14 01:54:18;;;;;;;5.57;4.20;;;15.10;58.50;;;;;;2053321;27;20183;-78
2022/03/14 01:55:18;;;;;;;6.03;3.60;;;15.10;58.50;;;;;;2044379;28;20197;-77
2022/03/14 01:56:17;;;;;;;8.52;3.90;;;15.10;58.60;;;;;;2044596;28;20507;-77
2022/03/14 01:57:16;;;;;;;4.13;3.30;;;15.20;58.70;;;;;;2052896;27;20208;-76
2022/03/14 01:58:16;;;;;;;5.33;3.50;;;15.20;58.60;;;;;;2053364;27;20252;-79
2022/03/14 01:59:15;;;;;;;7.45;3.35;;;15.20;58.40;;;;;;2053388;27;20417;-77
2022/03/14 02:00:14;;;;;;;5.20;3.53;;;15.20;58.50;;;;;;2053141;27;20645;-79
2022/03/14 02:01:13;;;;;;;8.20;3.92;;;15.10;58.50;;;;;;2043871;28;20427;-79
2022/03/14 02:02:12;;;;;;;4.80;3.33;;;15.20;58.70;;;;;;2044421;28;20193;-76
2022/03/14 02:03:10;;;;;;;7.27;3.43;;;15.10;58.50;;;;;;2052968;27;20237;-76
2022/03/14 02:04:10;;;;;;;4.97;3.10;;;15.10;58.40;;;;;;2053184;27;20169;-78
2022/03/14 02:05:10;;;;;;;6.00;4.20;;;15.10;58.60;;;;;;2053205;27;20222;-77
2022/03/14 02:06:09;;;;;;;9.20;3.60;;;15.10;58.50;;;;;;2053210;27;20230;-76
2022/03/14 02:07:08;;;;;;;6.10;4.10;;;15.10;58.20;;;;;;2053197;27;20698;-77
2022/03/14 02:08:07;;;;;;;7.40;4.13;;;15.10;58.50;;;;;;2053070;27;20476;-79
2022/03/14 02:09:07;;;;;;;8.25;3.97;;;15.10;58.60;;;;;;2053286;27;20762;-79
2022/03/14 02:10:07;;;;;;;8.55;4.07;;;15.10;58.60;;;;;;2044300;28;20177;-78
2022/03/14 02:11:06;;;;;;;6.57;4.10;;;15.10;58.50;;;;;;2044420;28;20172;-78
2022/03/14 02:12:07;;;;;;;7.80;3.97;;;15.10;58.50;;;;;;2052779;27;20193;-77
2022/03/14 02:13:07;;;;;;;5.05;4.00;;;15.10;58.50;;;;;;2053231;27;20584;-78
2022/03/14 02:14:06;;;;;;;5.72;3.58;;;15.10;59.10;;;;;;2043800;28;20178;-78
2022/03/14 02:15:05;;;;;;;4.93;3.30;;;15.10;58.40;;;;;;2044406;28;20664;-78
2022/03/14 02:16:05;;;;;;;4.60;3.33;;;15.10;58.30;;;;;;2052741;27;20229;-78
2022/03/14 02:17:04;;;;;;;6.47;4.07;;;15.10;58.50;;;;;;2053132;27;20197;-78
2022/03/14 02:18:03;;;;;;;7.40;4.00;;;15.10;58.60;;;;;;2052997;27;20680;-77
2022/03/14 02:19:01;;;;;;;5.07;3.77;;;15.10;58.50;;;;;;2052973;27;20703;-78
2022/03/14 02:20:00;;;;;;;6.87;3.77;;;15.20;58.50;;;;;;2053093;27;20438;-78
2022/03/14 02:20:59;;;;;;;6.17;3.77;;;15.10;58.30;;;;;;2044219;28;20181;-78
2022/03/14 02:21:58;;;;;;;6.70;3.57;;;15.10;58.40;;;;;;2044203;28;20453;-77
2022/03/14 02:22:56;;;;;;;6.72;4.03;;;15.10;58.40;;;;;;2052786;27;20594;-77
2022/03/14 02:23:57;;;;;;;5.70;3.60;;;15.10;58.40;;;;;;2053305;27;20277;-79
2022/03/14 02:24:55;;;;;;;5.60;3.80;;;15.10;58.30;;;;;;2044215;28;20174;-79
2022/03/14 02:25:55;;;;;;;5.60;3.67;;;15.10;58.40;;;;;;2044288;28;20183;-78
2022/03/14 02:26:53;;;;;;;6.45;4.50;;;15.10;58.30;;;;;;2044196;28;20174;-78
2022/03/14 02:27:52;;;;;;;5.47;3.60;;;15.10;58.30;;;;;;2044375;28;20170;-78
2022/03/14 02:28:51;;;;;;;7.13;3.97;;;15.10;58.40;;;;;;2052569;27;20165;-77
2022/03/14 02:29:49;;;;;;;4.47;3.33;;;15.10;58.30;;;;;;2053207;27;20177;-78
2022/03/14 02:30:51;;;;;;;5.90;3.30;;;15.10;58.30;;;;;;2053085;27;20218;-78
2022/03/14 02:31:51;;;;;;;8.60;3.70;;;15.10;58.50;;;;;;2052919;27;20192;-78
2022/03/14 02:32:50;;;;;;;5.22;3.35;;;15.10;58.30;;;;;;2053125;27;20170;-77
2022/03/14 02:33:48;;;;;;;5.90;3.37;;;15.10;58.40;;;;;;2053148;27;20480;-79
2022/03/14 02:34:46;;;;;;;4.47;3.33;;;15.10;58.30;;;;;;2053018;27;20632;-78
2022/03/14 02:35:46;;;;;;;5.80;3.80;;;15.10;58.20;;;;;;2052959;27;20172;-77
2022/03/14 02:36:45;;;;;;;5.45;3.58;;;15.10;58.20;;;;;;2052957;27;20213;-78
2022/03/14 02:37:44;;;;;;;6.63;3.80;;;15.10;58.20;;;;;;2052957;27;20188;-76
2022/03/14 02:38:43;;;;;;;5.83;3.73;;;15.10;58.20;;;;;;2052958;27;20398;-77
2022/03/14 02:39:42;;;;;;;5.35;3.65;;;15.10;58.30;;;;;;2044330;28;20170;-77
2022/03/14 02:40:43;;;;;;;5.47;3.73;;;15.10;58.30;;;;;;2044191;28;20221;-78
2022/03/14 02:41:42;;;;;;;6.20;3.88;;;15.10;58.20;;;;;;2052704;27;20210;-78
2022/03/14 02:42:41;;;;;;;6.28;2.78;;;15.10;58.20;;;;;;2052848;27;20173;-78
2022/03/14 02:43:39;;;;;;;6.17;3.90;;;15.10;58.00;;;;;;2052995;27;20169;-80
2022/03/14 02:44:41;;;;;;;6.20;3.77;;;15.10;58.20;;;;;;2052696;27;20220;-78
2022/03/14 02:45:41;;;;;;;6.55;4.18;;;15.10;58.10;;;;;;2052895;27;20162;-78
2022/03/14 02:46:40;;;;;;;5.63;3.85;;;15.10;58.30;;;;;;2053122;27;20636;-77
2022/03/14 02:47:38;;;;;;;5.30;3.40;;;15.10;58.20;;;;;;2052867;27;20180;-78
2022/03/14 02:48:39;;;;;;;5.30;3.83;;;15.10;58.20;;;;;;2053045;27;20434;-78
2022/03/14 02:49:38;;;;;;;5.78;3.83;;;15.10;58.30;;;;;;2043908;28;20224;-77
2022/03/14 02:50:40;;;;;;;4.97;2.80;;;15.20;58.20;;;;;;2044232;28;20175;-78
2022/03/14 02:51:39;;;;;;;4.80;3.25;;;15.10;57.80;;;;;;2043827;28;20177;-77
2022/03/14 02:52:38;;;;;;;6.10;3.83;;;15.10;58.20;;;;;;2044044;28;20178;-78
2022/03/14 02:53:37;;;;;;;6.60;3.90;;;15.10;58.20;;;;;;2052898;27;20161;-78
2022/03/14 02:54:35;;;;;;;5.23;3.70;;;15.10;58.10;;;;;;2053059;27;20169;-79
2022/03/14 02:55:35;;;;;;;5.83;4.13;;;15.10;58.20;;;;;;2052907;27;20200;-79
2022/03/14 02:56:34;;;;;;;4.88;3.45;;;15.10;58.20;;;;;;2053078;27;20169;-77
2022/03/14 02:57:32;;;;;;;5.43;4.20;;;15.10;58.20;;;;;;2052928;28;20176;-77
2022/03/14 02:58:33;;;;;;;7.00;3.87;;;15.10;58.20;;;;;;2053125;27;20184;-77
2022/03/14 02:59:32;;;;;;;5.90;4.10;;;15.10;58.20;;;;;;2052979;27;20177;-78
2022/03/14 03:00:31;;;;;;;5.15;3.22;;;15.10;58.20;;;;;;2052915;27;20265;-79
2022/03/14 03:01:29;;;;;;;6.77;3.27;;;15.10;58.10;;;;;;2052866;27;20475;-78
2022/03/14 03:02:28;;;;;;;6.63;3.87;;;15.10;58.20;;;;;;2052894;27;20218;-78
2022/03/14 03:03:27;;;;;;;6.37;3.40;;;15.10;58.20;;;;;;2053043;28;20196;-79
2022/03/14 03:04:26;;;;;;;4.93;3.20;;;15.10;58.20;;;;;;2052887;28;20195;-78
2022/03/14 03:05:24;;;;;;;6.33;3.60;;;15.10;58.20;;;;;;2052999;28;20165;-78
2022/03/14 03:06:23;;;;;;;6.10;3.87;;;15.10;58.00;;;;;;2052979;28;20172;-77
2022/03/14 03:07:22;;;;;;;8.07;3.17;;;15.10;57.90;;;;;;2052993;28;20184;-78
2022/03/14 03:08:22;;;;;;;6.80;3.75;;;15.00;57.60;;;;;;2052929;28;20173;-78
2022/03/14 03:09:21;;;;;;;3.92;2.85;;;15.00;57.90;;;;;;2043930;28;20169;-78
2022/03/14 03:10:23;;;;;;;10.20;3.67;;;15.00;57.90;;;;;;2044040;28;20231;-77
2022/03/14 03:11:22;;;;;;;4.78;3.05;;;15.10;58.20;;;;;;2052878;28;20208;-77
2022/03/14 03:12:25;;;;;;;7.93;3.80;;;15.00;58.10;;;;;;2052850;28;20667;-79
2022/03/14 03:13:24;;;;;;;5.03;3.50;;;15.00;57.80;;;;;;2052919;28;20500;-78
2022/03/14 03:14:23;;;;;;;3.75;3.10;;;15.00;58.10;;;;;;2044089;28;20653;-77
2022/03/14 03:15:24;;;;;;;5.37;3.50;;;15.00;58.10;;;;;;2044076;28;20269;-77
2022/03/14 03:16:23;;;;;;;5.72;3.40;;;15.10;58.20;;;;;;2044115;28;20712;-76
2022/03/14 03:17:22;;;;;;;5.40;3.67;;;15.00;57.90;;;;;;2044357;28;20170;-79
2022/03/14 03:18:21;;;;;;;5.00;3.67;;;15.10;58.00;;;;;;2052352;28;20467;-78
2022/03/14 03:19:20;;;;;;;6.57;3.63;;;15.00;58.00;;;;;;2044208;28;20181;-78
2022/03/14 03:20:19;;;;;;;5.97;3.97;;;15.00;58.00;;;;;;2044123;28;20188;-77
2022/03/14 03:21:17;;;;;;;6.28;4.00;;;15.00;58.10;;;;;;2052508;28;20213;-78
2022/03/14 03:22:17;;;;;;;4.80;3.30;;;15.00;58.10;;;;;;2052765;28;20197;-77
2022/03/14 03:23:15;;;;;;;5.20;4.38;;;15.00;58.10;;;;;;2052829;28;20226;-77
2022/03/14 03:24:14;;;;;;;5.30;3.70;;;15.00;58.10;;;;;;2053011;28;20576;-76
2022/03/14 03:25:13;;;;;;;4.57;3.53;;;15.00;58.00;;;;;;2053098;27;20576;-78
2022/03/14 03:26:12;;;;;;;5.43;3.40;;;15.10;58.10;;;;;;2053826;27;20222;-79
2022/03/14 03:27:11;;;;;;;6.32;3.67;;;15.10;58.20;;;;;;2054391;27;20180;-78
2022/03/14 03:28:09;;;;;;;5.23;3.63;;;15.00;57.90;;;;;;2054534;27;20173;-78
2022/03/14 03:29:09;;;;;;;5.00;3.50;;;15.00;57.90;;;;;;2054733;27;20169;-79
2022/03/14 03:30:08;;;;;;;5.07;3.15;;;15.00;57.80;;;;;;2054644;27;20651;-77
2022/03/14 03:31:09;;;;;;;3.17;2.80;;;15.00;57.90;;;;;;2054420;27;20485;-77
2022/03/14 03:32:08;;;;;;;5.72;3.63;;;15.00;58.20;;;;;;2045626;28;20584;-79
2022/03/14 03:33:07;;;;;;;5.80;3.50;;;15.10;58.20;;;;;;2045824;28;20260;-76
2022/03/14 03:34:06;;;;;;;5.47;3.80;;;15.00;57.90;;;;;;2044974;28;20178;-77
2022/03/14 03:35:05;;;;;;;4.90;3.63;;;15.00;58.10;;;;;;2045575;28;20158;-77
2022/03/14 03:36:05;;;;;;;3.97;3.10;;;15.00;58.10;;;;;;2054155;27;20271;-78
2022/03/14 03:37:04;;;;;;;5.85;3.42;;;15.00;57.80;;;;;;2054495;27;20177;-78
2022/03/14 03:38:03;;;;;;;6.20;3.57;;;15.00;58.10;;;;;;2054469;27;20589;-80
2022/03/14 03:39:01;;;;;;;5.10;3.57;;;15.00;58.20;;;;;;2054448;27;20571;-78
2022/03/14 03:40:00;;;;;;;4.40;3.07;;;15.00;58.10;;;;;;2054358;27;20901;-77
2022/03/14 03:40:59;;;;;;;4.43;3.33;;;15.00;57.90;;;;;;2054313;27;20172;-77
2022/03/14 03:41:57;;;;;;;5.43;3.70;;;15.00;58.10;;;;;;2054243;27;20212;-78
2022/03/14 03:42:56;;;;;;;6.53;3.67;;;15.00;58.10;;;;;;2054392;27;20226;-78
2022/03/14 03:43:54;;;;;;;5.17;3.20;;;15.00;57.90;;;;;;2054494;27;20218;-77
2022/03/14 03:44:53;;;;;;;5.27;3.37;;;15.00;58.00;;;;;;2054235;27;20206;-77
2022/03/14 03:45:51;;;;;;;8.00;3.70;;;15.00;57.90;;;;;;2045311;28;20259;-78
2022/03/14 03:46:50;;;;;;;6.97;4.20;;;15.00;57.80;;;;;;2045545;28;20178;-78
2022/03/14 03:47:48;;;;;;;4.90;3.93;;;15.00;57.80;;;;;;2053721;27;20195;-78
2022/03/14 03:48:47;;;;;;;4.03;2.60;;;15.00;57.90;;;;;;2054400;27;20275;-78
2022/03/14 03:49:45;;;;;;;4.60;2.87;;;15.00;57.90;;;;;;2045395;28;20277;-77
2022/03/14 03:50:45;;;;;;;4.50;3.10;;;15.00;57.80;;;;;;2045549;28;20174;-78
2022/03/14 03:51:45;;;;;;;5.97;4.15;;;15.00;57.80;;;;;;2053926;27;20244;-78
2022/03/14 03:52:43;;;;;;;6.70;3.95;;;14.90;58.00;;;;;;2054291;27;20256;-78
2022/03/14 03:53:42;;;;;;;5.33;3.30;;;15.00;58.20;;;;;;2054375;27;20177;-77
2022/03/14 03:54:41;;;;;;;6.23;3.97;;;15.10;58.30;;;;;;2054280;27;20441;-77
2022/03/14 03:55:40;;;;;;;6.00;3.40;;;15.00;58.10;;;;;;2054408;27;20613;-78
2022/03/14 03:56:38;;;;;;;5.90;3.60;;;15.00;58.10;;;;;;2054198;27;20165;-78
2022/03/14 03:57:37;;;;;;;5.00;3.77;;;15.00;58.00;;;;;;2045731;28;20250;-78
2022/03/14 03:58:35;;;;;;;5.57;3.37;;;15.00;57.90;;;;;;2045559;28;20235;-79
2022/03/14 03:59:34;;;;;;;5.90;3.80;;;15.00;57.80;;;;;;2053966;27;20663;-77
2022/03/14 04:00:33;;;;;;;4.87;3.57;;;15.00;57.90;;;;;;2054241;27;20176;-77
2022/03/14 04:01:31;;;;;;;6.90;3.93;;;15.00;57.70;;;;;;2054233;27;20191;-79
2022/03/14 04:02:35;;;;;;;4.40;3.33;;;15.00;57.90;;;;;;2054180;27;20180;-76
2022/03/14 04:03:35;;;;;;;7.05;3.50;;;15.00;57.80;;;;;;2054335;27;20169;-78
2022/03/14 04:04:35;;;;;;;4.43;3.50;;;15.00;57.80;;;;;;2054260;27;20619;-77
2022/03/14 04:05:39;;;;;;;6.05;3.53;;;15.00;57.90;;;;;;2045425;28;20649;-78
2022/03/14 04:06:41;;;;;;;5.75;3.60;;;15.00;57.90;;;;;;2045774;28;20205;-78
2022/03/14 04:07:40;;;;;;;3.45;3.00;;;15.00;57.90;;;;;;2054292;27;20230;-78
2022/03/14 04:08:39;;;;;;;8.25;3.97;;;15.00;57.90;;;;;;2054421;27;20650;-77
2022/03/14 04:09:37;;;;;;;5.77;3.77;;;15.00;57.80;;;;;;2054316;27;20188;-77
2022/03/14 04:10:36;;;;;;;4.80;3.30;;;15.00;58.60;;;;;;2054287;27;20236;-78
2022/03/14 04:11:35;;;;;;;5.30;3.55;;;15.00;57.80;;;;;;2054249;27;20173;-78
2022/03/14 04:12:33;;;;;;;5.50;3.37;;;15.00;57.80;;;;;;2054303;27;20192;-78
2022/03/14 04:13:32;;;;;;;5.23;3.50;;;15.00;57.80;;;;;;2054317;27;20176;-78
2022/03/14 04:14:30;;;;;;;10.17;3.10;;;15.00;57.70;;;;;;2054365;27;20242;-79
2022/03/14 04:15:29;;;;;;;6.27;3.83;;;14.90;57.70;;;;;;2054475;27;20217;-78
2022/03/14 04:16:28;;;;;;;5.75;2.97;;;15.00;57.80;;;;;;2054344;27;20280;-79
2022/03/14 04:17:28;;;;;;;5.90;3.37;;;15.00;57.70;;;;;;2054485;27;20181;-78
2022/03/14 04:18:27;;;;;;;4.70;3.00;;;14.90;57.70;;;;;;2045401;28;20978;-79
2022/03/14 04:19:25;;;;;;;5.05;3.22;;;14.90;57.90;;;;;;2045864;28;20699;-77
2022/03/14 04:20:24;;;;;;;5.60;3.03;;;15.00;57.80;;;;;;2054110;27;20177;-79
2022/03/14 04:21:23;;;;;;;4.33;2.97;;;15.00;57.90;;;;;;2054796;27;20668;-78
2022/03/14 04:22:22;;;;;;;5.87;3.63;;;14.90;57.70;;;;;;2054546;27;20437;-78
2022/03/14 04:23:20;;;;;;;5.80;3.50;;;15.00;57.70;;;;;;2055128;27;20184;-78
2022/03/14 04:24:19;;;;;;;5.83;3.60;;;14.90;57.80;;;;;;2048802;28;20223;-78
2022/03/14 04:25:18;;;;;;;3.67;3.13;;;14.90;57.70;;;;;;2052045;28;20471;-78
2022/03/14 04:26:17;;;;;;;5.10;3.43;;;14.90;57.70;;;;;;2059016;27;20184;-78
2022/03/14 04:27:15;;;;;;;5.40;3.33;;;15.00;57.80;;;;;;2051538;28;20168;-77
2022/03/14 04:28:15;;;;;;;4.73;3.33;;;14.90;57.80;;;;;;2052339;28;20180;-77
2022/03/14 04:29:14;;;;;;;4.57;3.33;;;14.90;57.60;;;;;;2060952;27;20176;-78
2022/03/14 04:30:16;;;;;;;5.70;3.63;;;15.00;57.70;;;;;;2061286;27;20173;-78
2022/03/14 04:31:15;;;;;;;4.30;3.30;;;15.00;57.80;;;;;;2061006;27;20226;-77
2022/03/14 04:32:13;;;;;;;5.27;3.17;;;14.90;57.70;;;;;;2061103;27;20197;-78
2022/03/14 04:33:12;;;;;;;4.43;3.40;;;14.90;57.70;;;;;;2061123;27;20202;-78
2022/03/14 04:34:10;;;;;;;6.50;3.80;;;15.00;57.60;;;;;;2060857;27;20169;-78
2022/03/14 04:35:09;;;;;;;6.00;3.50;;;14.90;57.50;;;;;;2061378;27;20165;-77
2022/03/14 04:36:08;;;;;;;4.97;3.50;;;14.90;57.50;;;;;;2061139;27;20179;-78
2022/03/14 04:37:07;;;;;;;5.70;3.47;;;14.90;57.70;;;;;;2051969;28;20189;-78
2022/03/14 04:38:09;;;;;;;5.97;3.50;;;14.90;57.50;;;;;;2051195;28;20607;-79
2022/03/14 04:39:07;;;;;;;6.50;3.58;;;14.90;57.50;;;;;;2061188;27;20826;-79
2022/03/14 04:40:08;;;;;;;4.73;3.10;;;14.90;57.50;;;;;;2061624;27;20169;-77
2022/03/14 04:41:06;;;;;;;5.80;3.38;;;14.90;57.60;;;;;;2060986;27;20187;-77
2022/03/14 04:42:05;;;;;;;6.83;4.20;;;14.90;57.70;;;;;;2057446;27;20237;-77
2022/03/14 04:43:07;;;;;;;6.23;3.73;;;14.90;57.60;;;;;;2054088;27;20169;-79
2022/03/14 04:44:06;;;;;;;5.13;3.15;;;14.90;57.40;;;;;;2054069;27;20417;-77
2022/03/14 04:45:05;;;;;;;4.27;3.30;;;14.90;57.40;;;;;;2054185;27;20229;-77
2022/03/14 04:46:03;;;;;;;6.20;2.90;;;14.80;57.50;;;;;;2054086;27;20177;-79
2022/03/14 04:47:03;;;;;;;4.67;2.97;;;14.90;57.90;;;;;;2054019;27;20251;-78
2022/03/14 04:48:05;;;;;;;8.15;4.03;;;14.90;57.80;;;;;;2053769;27;20175;-78
2022/03/14 04:49:04;;;;;;;4.90;3.65;;;14.90;57.80;;;;;;2053831;27;20528;-78
2022/03/14 04:50:04;;;;;;;5.82;3.25;;;14.90;57.60;;;;;;2053917;27;20633;-78
2022/03/14 04:51:03;;;;;;;4.22;3.00;;;14.90;57.50;;;;;;2053952;27;20173;-80
2022/03/14 04:52:02;;;;;;;5.40;3.33;;;14.90;57.50;;;;;;2044989;28;20300;-79
2022/03/14 04:53:00;;;;;;;4.60;3.20;;;14.90;57.70;;;;;;2045140;28;20200;-79
2022/03/14 04:53:59;;;;;;;7.87;3.60;;;14.90;57.80;;;;;;2053474;27;20656;-78
2022/03/14 04:54:58;;;;;;;4.40;2.83;;;14.90;57.40;;;;;;2054138;27;20165;-77
2022/03/14 04:55:56;;;;;;;4.97;3.73;;;14.80;57.60;;;;;;2054123;27;20493;-78
2022/03/14 04:56:55;;;;;;;6.70;3.60;;;14.80;57.80;;;;;;2054001;27;20173;-79
2022/03/14 04:57:53;;;;;;;6.37;3.20;;;14.80;57.80;;;;;;2054225;27;20225;-79
2022/03/14 04:58:52;;;;;;;5.27;3.40;;;14.80;57.80;;;;;;2053887;27;20232;-78
2022/03/14 04:59:51;;;;;;;4.57;3.13;;;14.90;57.90;;;;;;2054183;27;20187;-77
2022/03/14 05:00:49;;;;;;;6.63;3.87;;;14.90;57.90;;;;;;2054009;27;20256;-78
2022/03/14 05:01:48;;;;;;;4.60;3.23;;;14.90;57.90;;;;;;2054061;27;20189;-80
2022/03/14 05:02:46;;;;;;;6.27;3.60;;;14.90;57.70;;;;;;2054078;27;20175;-77
2022/03/14 05:03:44;;;;;;;5.00;3.40;;;14.90;57.80;;;;;;2054329;27;20213;-77
2022/03/14 05:04:43;;;;;;;6.93;4.33;;;14.90;57.80;;;;;;2053963;27;20333;-79
2022/03/14 05:05:42;;;;;;;5.80;3.80;;;14.90;57.80;;;;;;2045132;28;20271;-77
2022/03/14 05:06:40;;;;;;;6.63;3.20;;;14.90;57.80;;;;;;2045607;28;20189;-77
2022/03/14 05:07:39;;;;;;;8.17;4.10;;;14.90;57.70;;;;;;2054407;27;20169;-77